TimeCDT,TemperatureF,Dew PointF,Humidity,Sea Level PressureIn,VisibilityMPH,Wind Direction,Wind SpeedMPH,Gust SpeedMPH,PrecipitationIn,Events,Conditions,WindDirDegrees,DateUTC
12:15 AM,71.1,68.0,90,30.06,7.0,SSE,3.5,-,N/A,,Clear,160,2012-10-14 05:15:00
12:35 AM,69.8,66.9,91,30.05,7.0,SSE,5.8,-,N/A,,Scattered Clouds,150,2012-10-14 05:35:00
12:55 AM,69.8,67.1,91,30.05,7.0,SSE,6.9,-,N/A,,Scattered Clouds,150,2012-10-14 05:55:00
1:15 AM,70.2,67.8,92,30.04,7.0,SSE,5.8,-,N/A,,Clear,150,2012-10-14 06:15:00
1:35 AM,70.5,67.8,91,30.03,7.0,SSE,5.8,-,N/A,,Clear,160,2012-10-14 06:35:00
1:55 AM,70.2,67.5,91,30.03,7.0,SSE,5.8,-,N/A,,Clear,160,2012-10-14 06:55:00
2:15 AM,70.3,68.0,92,30.01,7.0,South,5.8,-,N/A,,Clear,170,2012-10-14 07:15:00
2:35 AM,70.7,68.0,91,30.02,7.0,South,4.6,-,N/A,,Clear,170,2012-10-14 07:35:00
2:55 AM,69.6,66.9,91,30.01,7.0,SSE,4.6,-,N/A,,Scattered Clouds,160,2012-10-14 07:55:00
3:15 AM,69.1,66.6,92,30.01,5.0,SSE,3.5,-,N/A,,Scattered Clouds,160,2012-10-14 08:15:00
3:35 AM,68.5,66.4,93,30.01,5.0,SSE,3.5,-,N/A,,Scattered Clouds,160,2012-10-14 08:35:00
3:55 AM,69.1,67.1,93,30.00,5.0,SSE,4.6,-,N/A,,Scattered Clouds,150,2012-10-14 08:55:00
4:15 AM,68.5,66.4,93,30.00,3.0,SE,5.8,-,N/A,,Clear,140,2012-10-14 09:15:00
4:35 AM,70.0,68.0,93,30.01,4.0,Calm,Calm,-,N/A,,Scattered Clouds,0,2012-10-14 09:35:00
4:55 AM,69.4,67.5,93,30.00,5.0,SE,4.6,-,N/A,,Clear,140,2012-10-14 09:55:00
5:15 AM,68.9,67.1,94,30.01,3.0,SSE,3.5,-,N/A,,Unknown,160,2012-10-14 10:15:00
5:35 AM,69.3,67.3,93,30.01,5.0,SSE,4.6,-,N/A,,Clear,160,2012-10-14 10:35:00
5:55 AM,68.9,67.1,94,30.01,5.0,SSE,4.6,-,N/A,,Clear,160,2012-10-14 10:55:00
6:00 AM,69.8,66.2,88,30.01,5.0,SSE,4.6,-,N/A,,Clear,160,2012-10-14 11:00:00
6:50 AM,69.8,68.0,94,30.05,5.0,Calm,Calm,-,N/A,,Scattered Clouds,0,2012-10-14 11:50:00
7:50 AM,71.6,68.0,88,30.07,3.0,ESE,3.5,-,N/A,,Scattered Clouds,110,2012-10-14 12:50:00
8:50 AM,75.2,71.6,89,30.10,7.0,Calm,Calm,-,N/A,,Clear,0,2012-10-14 13:50:00
9:50 AM,82.4,71.6,70,30.11,10.0,WSW,9.2,-,N/A,,Scattered Clouds,250,2012-10-14 14:50:00
10:50 AM,84.2,68.0,58,30.11,10.0,SW,10.4,16.1,N/A,,Scattered Clouds,220,2012-10-14 15:50:00
11:50 AM,84.2,66.2,55,30.08,10.0,SSW,15.0,19.6,N/A,,Scattered Clouds,210,2012-10-14 16:50:00
12:50 PM,84.2,66.2,55,30.04,10.0,South,12.7,-,N/A,,Scattered Clouds,190,2012-10-14 17:50:00
1:50 PM,82.4,68.0,62,30.01,10.0,South,8.1,-,N/A,,Clear,180,2012-10-14 18:50:00
3:45 PM,86.0,64.4,48,30.01,10.0,SW,11.5,-,N/A,,Scattered Clouds,220,2012-10-14 20:45:00
4:55 PM,84.2,66.2,55,30.00,10.0,SW,11.5,-,N/A,,Scattered Clouds,230,2012-10-14 21:55:00
5:50 PM,84.2,64.4,51,29.99,10.0,SSW,10.4,-,N/A,,Scattered Clouds,210,2012-10-14 22:50:00
6:45 PM,80.6,68.0,65,29.99,10.0,South,6.9,-,N/A,,Scattered Clouds,190,2012-10-14 23:45:00
7:45 PM,78.8,69.8,74,29.99,10.0,ESE,8.1,-,N/A,,Clear,120,2012-10-15 00:45:00
8:50 PM,75.2,71.6,89,30.02,10.0,SSW,5.8,-,N/A,,Clear,200,2012-10-15 01:50:00
9:50 PM,75.2,71.6,89,30.02,10.0,SSW,3.5,-,N/A,,Scattered Clouds,200,2012-10-15 02:50:00
10:15 PM,75.7,71.6,87,30.02,10.0,South,4.6,-,N/A,,Mostly Cloudy,190,2012-10-15 03:15:00
10:35 PM,73.4,69.4,87,30.02,7.0,South,3.5,-,N/A,,Mostly Cloudy,180,2012-10-15 03:35:00
10:55 PM,73.4,70.3,90,30.03,4.0,Calm,Calm,-,N/A,,Overcast,0,2012-10-15 03:55:00
11:15 PM,73.4,70.3,90,30.02,5.0,Calm,Calm,-,N/A,,Overcast,0,2012-10-15 04:15:00
11:35 PM,75.7,72.5,90,30.03,10.0,WSW,3.5,-,N/A,,Mostly Cloudy,240,2012-10-15 04:35:00